Dove Creek, CO (81324)

4:25 AM MDT on August 31, 2015 (GMT -0600)
Cahone (2.5 Miles NNE) | | Change Station
CLOSE
Current Station
Personal Weather Station
Location: Cahone, CO
Elevation: 6870 ft
Nearby Weather Stations

Elev 6870 ft 37.69 °N, 108.80 °W | Updated 25 seconds ago

Mostly Cloudy
Mostly Cloudy
59.3 °F
Feels Like 59.3 °F
N
0.0
Wind Variable Wind from ENE
Gusts 1.0 mph

Today
High -- | Low -- °F
--% Chance of Precip.
Yesterday
High -- | Low -- °F
Precip. -- in
6:44 AM 7:46 PM
Waning Gibbous, 96% visible
Pressure 30.25 in
Visibility 10.0 miles
Clouds Clear
Dew Point 46 °F
Humidity 61%
Rainfall 0.00 in
Snow Depth Not available.
UV 0 out of 12
Pollen 9.90 out of 12
Air Quality Not available.
Flu Activity Not available.
METAR KBDG 310955Z AUTO 02005KT 10SM CLR 15/12 A3025 RMK AO1 T01460118
Pressure 30.25 in
Visibility 10.0 miles
Clouds Clear
Dew Point 46 °F
Humidity 61%
Rainfall 0.00 in
Snow Depth Not available.
UV 0 out of 12
Pollen 9.90 out of 12
Air Quality Not available.
Flu Activity Not available.
METAR KBDG 310955Z AUTO 02005KT 10SM CLR 15/12 A3025 RMK AO1 T01460118

10-Day Weather Forecast

×

Almanac

Astronomy

Aug. 31, 2015 Rise Set
Actual Time
Civil Twilight
Nautical Twilight
Astronomical Twilight
Moon
Length of Visible Light
Length of Day
Tomorrow will be .
, % of the Moon is Illuminated

Today's Extremes

State Highs State Lows

Community

WunderPhotos

Upload Photos

1,851,229 photos uploaded!

WunderBlogs® & News

Nearby

Air Quality

  Air Quality AQ Index Pollutant
Not available.

Snow Depth

Station Depth Elevation

Earthquake Activity

City Distance Mag. Time & Date
Minimum magnitude displayed is 2.5.

Coastal Water Temperatures

Place Temperature

Stations

Nearby Weather Stations

Station Location Temp. Windchill Dew Point Humidity Wind Precip. Elev Updated Type